sensor_id;sensor_type;location;lat;lon;timestamp;P1;durP1;ratioP1;P2;durP2;ratioP2
39308;SDS011;26019;47.510;19.122;2023-09-18T00:04:05;11.35;;;8.77;;
39308;SDS011;26019;47.510;19.122;2023-09-18T00:24:14;11.82;;;8.85;;
39308;SDS011;26019;47.510;19.122;2023-09-18T00:34:17;9.75;;;8.60;;
39308;SDS011;26019;47.510;19.122;2023-09-18T00:54:21;14.77;;;9.53;;
39308;SDS011;26019;47.510;19.122;2023-09-18T01:04:24;11.13;;;9.55;;
39308;SDS011;26019;47.510;19.122;2023-09-18T01:24:36;13.88;;;9.68;;
39308;SDS011;26019;47.510;19.122;2023-09-18T01:34:41;13.18;;;9.27;;
39308;SDS011;26019;47.510;19.122;2023-09-18T01:44:49;13.93;;;9.07;;
39308;SDS011;26019;47.510;19.122;2023-09-18T01:54:51;14.23;;;9.55;;
39308;SDS011;26019;47.510;19.122;2023-09-18T02:04:53;15.93;;;9.80;;
39308;SDS011;26019;47.510;19.122;2023-09-18T02:15:10;12.43;;;9.13;;
39308;SDS011;26019;47.510;19.122;2023-09-18T02:25:12;14.80;;;9.00;;
39308;SDS011;26019;47.510;19.122;2023-09-18T02:35:15;15.95;;;9.68;;
39308;SDS011;26019;47.510;19.122;2023-09-18T02:45:17;11.38;;;8.65;;
39308;SDS011;26019;47.510;19.122;2023-09-18T02:55:20;11.43;;;8.63;;
39308;SDS011;26019;47.510;19.122;2023-09-18T03:05:22;14.98;;;10.63;;
39308;SDS011;26019;47.510;19.122;2023-09-18T03:15:24;13.07;;;9.60;;
39308;SDS011;26019;47.510;19.122;2023-09-18T03:35:53;17.02;;;9.80;;
39308;SDS011;26019;47.510;19.122;2023-09-18T03:46:06;21.02;;;10.07;;
39308;SDS011;26019;47.510;19.122;2023-09-18T03:56:08;16.92;;;9.45;;
39308;SDS011;26019;47.510;19.122;2023-09-18T04:06:10;17.40;;;10.27;;
39308;SDS011;26019;47.510;19.122;2023-09-18T04:16:12;12.68;;;10.40;;
39308;SDS011;26019;47.510;19.122;2023-09-18T04:26:18;18.13;;;10.38;;
39308;SDS011;26019;47.510;19.122;2023-09-18T04:36:22;17.83;;;9.82;;
39308;SDS011;26019;47.510;19.122;2023-09-18T04:46:25;18.45;;;11.00;;
39308;SDS011;26019;47.510;19.122;2023-09-18T04:56:27;15.20;;;10.82;;
39308;SDS011;26019;47.510;19.122;2023-09-18T05:06:29;15.65;;;11.32;;
39308;SDS011;26019;47.510;19.122;2023-09-18T05:16:32;18.48;;;11.40;;
39308;SDS011;26019;47.510;19.122;2023-09-18T05:26:36;17.02;;;11.52;;
39308;SDS011;26019;47.510;19.122;2023-09-18T05:36:39;24.05;;;12.73;;
39308;SDS011;26019;47.510;19.122;2023-09-18T05:46:43;14.32;;;10.63;;
39308;SDS011;26019;47.510;19.122;2023-09-18T05:56:45;18.83;;;11.57;;
39308;SDS011;26019;47.510;19.122;2023-09-18T06:06:47;16.40;;;9.65;;
39308;SDS011;26019;47.510;19.122;2023-09-18T06:16:48;17.35;;;9.95;;
39308;SDS011;26019;47.510;19.122;2023-09-18T06:36:52;12.73;;;10.17;;
39308;SDS011;26019;47.510;19.122;2023-09-18T06:56:56;10.50;;;8.80;;
39308;SDS011;26019;47.510;19.122;2023-09-18T07:06:57;15.52;;;9.02;;
39308;SDS011;26019;47.510;19.122;2023-09-18T07:16:59;11.57;;;7.70;;
39308;SDS011;26019;47.510;19.122;2023-09-18T07:27:02;14.15;;;9.32;;
39308;SDS011;26019;47.510;19.122;2023-09-18T07:37:05;12.40;;;8.60;;
39308;SDS011;26019;47.510;19.122;2023-09-18T07:47:07;14.25;;;9.15;;
39308;SDS011;26019;47.510;19.122;2023-09-18T07:57:08;15.25;;;11.93;;
39308;SDS011;26019;47.510;19.122;2023-09-18T08:07:10;12.57;;;8.10;;
39308;SDS011;26019;47.510;19.122;2023-09-18T08:17:13;13.93;;;8.13;;
39308;SDS011;26019;47.510;19.122;2023-09-18T08:27:15;18.20;;;8.68;;
39308;SDS011;26019;47.510;19.122;2023-09-18T08:37:20;16.60;;;8.05;;
39308;SDS011;26019;47.510;19.122;2023-09-18T08:47:22;11.40;;;7.80;;
39308;SDS011;26019;47.510;19.122;2023-09-18T08:57:24;8.50;;;7.45;;
39308;SDS011;26019;47.510;19.122;2023-09-18T09:07:27;9.30;;;7.28;;
39308;SDS011;26019;47.510;19.122;2023-09-18T09:17:33;10.60;;;6.80;;
39308;SDS011;26019;47.510;19.122;2023-09-18T09:27:43;7.75;;;6.72;;
39308;SDS011;26019;47.510;19.122;2023-09-18T09:37:46;9.73;;;7.13;;
39308;SDS011;26019;47.510;19.122;2023-09-18T09:47:47;7.70;;;6.95;;
39308;SDS011;26019;47.510;19.122;2023-09-18T09:57:54;10.48;;;6.65;;
39308;SDS011;26019;47.510;19.122;2023-09-18T10:08:00;7.47;;;6.20;;
39308;SDS011;26019;47.510;19.122;2023-09-18T10:18:10;12.60;;;6.93;;
39308;SDS011;26019;47.510;19.122;2023-09-18T10:28:24;8.52;;;5.85;;
39308;SDS011;26019;47.510;19.122;2023-09-18T10:38:29;7.63;;;6.17;;
39308;SDS011;26019;47.510;19.122;2023-09-18T10:48:32;7.72;;;5.65;;
39308;SDS011;26019;47.510;19.122;2023-09-18T10:58:34;11.82;;;6.57;;
39308;SDS011;26019;47.510;19.122;2023-09-18T11:08:43;7.22;;;6.05;;
39308;SDS011;26019;47.510;19.122;2023-09-18T11:18:51;8.23;;;7.22;;
39308;SDS011;26019;47.510;19.122;2023-09-18T11:29:00;9.25;;;5.93;;
39308;SDS011;26019;47.510;19.122;2023-09-18T11:39:06;6.78;;;6.10;;
39308;SDS011;26019;47.510;19.122;2023-09-18T11:49:10;8.75;;;6.13;;
39308;SDS011;26019;47.510;19.122;2023-09-18T11:59:14;7.95;;;6.82;;
39308;SDS011;26019;47.510;19.122;2023-09-18T12:09:16;7.15;;;6.43;;
39308;SDS011;26019;47.510;19.122;2023-09-18T12:19:21;12.15;;;6.13;;
39308;SDS011;26019;47.510;19.122;2023-09-18T12:29:23;10.85;;;6.95;;
39308;SDS011;26019;47.510;19.122;2023-09-18T12:39:25;9.15;;;6.60;;
39308;SDS011;26019;47.510;19.122;2023-09-18T12:49:33;8.32;;;6.30;;
39308;SDS011;26019;47.510;19.122;2023-09-18T12:59:36;10.77;;;6.00;;
39308;SDS011;26019;47.510;19.122;2023-09-18T13:09:41;9.60;;;6.55;;
39308;SDS011;26019;47.510;19.122;2023-09-18T13:19:42;11.40;;;6.28;;
39308;SDS011;26019;47.510;19.122;2023-09-18T13:29:44;11.15;;;6.18;;
39308;SDS011;26019;47.510;19.122;2023-09-18T13:39:46;8.57;;;6.65;;
39308;SDS011;26019;47.510;19.122;2023-09-18T13:49:48;10.30;;;6.82;;
39308;SDS011;26019;47.510;19.122;2023-09-18T13:59:50;6.55;;;5.68;;
39308;SDS011;26019;47.510;19.122;2023-09-18T14:09:53;13.30;;;7.18;;
39308;SDS011;26019;47.510;19.122;2023-09-18T14:19:55;8.20;;;5.88;;
39308;SDS011;26019;47.510;19.122;2023-09-18T14:29:56;8.98;;;6.38;;
39308;SDS011;26019;47.510;19.122;2023-09-18T14:39:58;11.50;;;6.43;;
39308;SDS011;26019;47.510;19.122;2023-09-18T14:50:02;8.13;;;6.65;;
39308;SDS011;26019;47.510;19.122;2023-09-18T15:00:08;13.30;;;7.13;;
39308;SDS011;26019;47.510;19.122;2023-09-18T15:10:12;8.60;;;6.40;;
39308;SDS011;26019;47.510;19.122;2023-09-18T15:30:25;8.10;;;6.45;;
39308;SDS011;26019;47.510;19.122;2023-09-18T15:40:27;10.57;;;6.95;;
39308;SDS011;26019;47.510;19.122;2023-09-18T15:50:30;9.45;;;6.93;;
39308;SDS011;26019;47.510;19.122;2023-09-18T16:00:38;10.97;;;7.83;;
39308;SDS011;26019;47.510;19.122;2023-09-18T16:10:42;15.65;;;9.48;;
39308;SDS011;26019;47.510;19.122;2023-09-18T16:20:45;12.38;;;8.13;;
39308;SDS011;26019;47.510;19.122;2023-09-18T16:30:48;7.93;;;6.72;;
39308;SDS011;26019;47.510;19.122;2023-09-18T16:40:50;12.98;;;7.45;;
39308;SDS011;26019;47.510;19.122;2023-09-18T16:50:53;15.38;;;7.45;;
39308;SDS011;26019;47.510;19.122;2023-09-18T17:00:56;9.88;;;7.07;;
39308;SDS011;26019;47.510;19.122;2023-09-18T17:11:00;11.13;;;6.70;;
39308;SDS011;26019;47.510;19.122;2023-09-18T17:21:03;8.93;;;6.72;;
39308;SDS011;26019;47.510;19.122;2023-09-18T17:31:06;12.85;;;6.80;;
39308;SDS011;26019;47.510;19.122;2023-09-18T17:41:08;10.85;;;7.03;;
39308;SDS011;26019;47.510;19.122;2023-09-18T17:51:11;13.63;;;6.90;;
39308;SDS011;26019;47.510;19.122;2023-09-18T18:01:18;13.90;;;7.45;;
39308;SDS011;26019;47.510;19.122;2023-09-18T18:11:22;19.80;;;8.35;;
39308;SDS011;26019;47.510;19.122;2023-09-18T18:21:25;9.25;;;6.40;;
39308;SDS011;26019;47.510;19.122;2023-09-18T18:31:27;10.93;;;6.55;;
39308;SDS011;26019;47.510;19.122;2023-09-18T18:51:43;12.18;;;6.60;;
39308;SDS011;26019;47.510;19.122;2023-09-18T19:01:47;10.77;;;5.72;;
39308;SDS011;26019;47.510;19.122;2023-09-18T19:11:54;9.50;;;6.38;;
39308;SDS011;26019;47.510;19.122;2023-09-18T19:21:57;13.68;;;6.18;;
39308;SDS011;26019;47.510;19.122;2023-09-18T19:31:59;9.05;;;5.80;;
39308;SDS011;26019;47.510;19.122;2023-09-18T19:42:01;9.52;;;5.65;;
39308;SDS011;26019;47.510;19.122;2023-09-18T19:52:05;8.25;;;5.97;;
39308;SDS011;26019;47.510;19.122;2023-09-18T20:02:14;11.15;;;6.97;;
39308;SDS011;26019;47.510;19.122;2023-09-18T20:12:21;10.30;;;5.90;;
39308;SDS011;26019;47.510;19.122;2023-09-18T20:22:23;9.65;;;6.00;;
39308;SDS011;26019;47.510;19.122;2023-09-18T20:32:25;10.85;;;5.40;;
39308;SDS011;26019;47.510;19.122;2023-09-18T20:42:27;7.72;;;5.80;;
39308;SDS011;26019;47.510;19.122;2023-09-18T20:52:32;12.35;;;6.32;;
39308;SDS011;26019;47.510;19.122;2023-09-18T21:02:37;6.28;;;5.00;;
39308;SDS011;26019;47.510;19.122;2023-09-18T21:12:47;9.65;;;5.57;;
39308;SDS011;26019;47.510;19.122;2023-09-18T21:22:48;11.02;;;5.75;;
39308;SDS011;26019;47.510;19.122;2023-09-18T21:32:52;8.48;;;5.03;;
39308;SDS011;26019;47.510;19.122;2023-09-18T21:42:54;10.93;;;6.22;;
39308;SDS011;26019;47.510;19.122;2023-09-18T21:52:58;11.23;;;5.32;;
39308;SDS011;26019;47.510;19.122;2023-09-18T22:03:02;12.20;;;5.28;;
39308;SDS011;26019;47.510;19.122;2023-09-18T22:13:06;11.00;;;4.72;;
39308;SDS011;26019;47.510;19.122;2023-09-18T22:23:07;12.18;;;4.55;;
39308;SDS011;26019;47.510;19.122;2023-09-18T22:33:11;8.63;;;4.80;;
39308;SDS011;26019;47.510;19.122;2023-09-18T23:03:55;11.55;;;4.65;;
39308;SDS011;26019;47.510;19.122;2023-09-18T23:14:00;8.68;;;4.47;;
39308;SDS011;26019;47.510;19.122;2023-09-18T23:24:05;10.27;;;4.07;;
39308;SDS011;26019;47.510;19.122;2023-09-18T23:34:11;16.70;;;4.97;;
39308;SDS011;26019;47.510;19.122;2023-09-18T23:44:13;11.45;;;5.05;;
39308;SDS011;26019;47.510;19.122;2023-09-18T23:54:18;9.80;;;4.60;;
